sensor_id;sensor_type;location;lat;lon;timestamp;temperature;humidity
15930;DHT22;8064;51.142;4.780;2023-08-08T00:00:17;15.20;99.90
15930;DHT22;8064;51.142;4.780;2023-08-08T00:02:44;15.20;99.90
15930;DHT22;8064;51.142;4.780;2023-08-08T00:05:09;15.20;99.90
15930;DHT22;8064;51.142;4.780;2023-08-08T00:07:35;15.10;99.90
15930;DHT22;8064;51.142;4.780;2023-08-08T00:10:01;15.10;99.90
15930;DHT22;8064;51.142;4.780;2023-08-08T00:12:27;15.10;99.90
15930;DHT22;8064;51.142;4.780;2023-08-08T00:14:53;15.10;99.90
15930;DHT22;8064;51.142;4.780;2023-08-08T00:17:18;15.00;99.90
15930;DHT22;8064;51.142;4.780;2023-08-08T00:19:44;15.00;99.90
15930;DHT22;8064;51.142;4.780;2023-08-08T00:22:10;15.00;99.90
15930;DHT22;8064;51.142;4.780;2023-08-08T00:24:36;15.00;99.90
15930;DHT22;8064;51.142;4.780;2023-08-08T00:27:01;15.00;99.90
15930;DHT22;8064;51.142;4.780;2023-08-08T00:29:27;14.90;99.90
15930;DHT22;8064;51.142;4.780;2023-08-08T00:31:53;14.90;99.90
15930;DHT22;8064;51.142;4.780;2023-08-08T00:34:19;14.90;99.90
15930;DHT22;8064;51.142;4.780;2023-08-08T00:36:44;14.90;99.90
15930;DHT22;8064;51.142;4.780;2023-08-08T00:39:10;14.90;99.90
15930;DHT22;8064;51.142;4.780;2023-08-08T00:41:36;14.90;99.90
15930;DHT22;8064;51.142;4.780;2023-08-08T00:44:02;14.90;99.90
15930;DHT22;8064;51.142;4.780;2023-08-08T00:46:28;14.90;99.90
15930;DHT22;8064;51.142;4.780;2023-08-08T00:48:54;14.90;99.90
15930;DHT22;8064;51.142;4.780;2023-08-08T00:51:20;14.90;99.90
15930;DHT22;8064;51.142;4.780;2023-08-08T00:53:47;14.80;99.90
15930;DHT22;8064;51.142;4.780;2023-08-08T00:56:15;14.80;99.90
15930;DHT22;8064;51.142;4.780;2023-08-08T00:58:42;14.80;99.90
15930;DHT22;8064;51.142;4.780;2023-08-08T01:01:12;14.80;99.90
15930;DHT22;8064;51.142;4.780;2023-08-08T01:03:38;14.80;99.90
15930;DHT22;8064;51.142;4.780;2023-08-08T01:06:10;14.80;99.90
15930;DHT22;8064;51.142;4.780;2023-08-08T01:08:44;14.80;99.90
15930;DHT22;8064;51.142;4.780;2023-08-08T01:11:11;14.80;99.90
15930;DHT22;8064;51.142;4.780;2023-08-08T01:13:39;14.70;99.90
15930;DHT22;8064;51.142;4.780;2023-08-08T01:16:06;14.80;99.90
15930;DHT22;8064;51.142;4.780;2023-08-08T01:18:33;14.70;99.90
15930;DHT22;8064;51.142;4.780;2023-08-08T01:21:00;14.70;99.90
15930;DHT22;8064;51.142;4.780;2023-08-08T01:26:09;14.70;99.90
15930;DHT22;8064;51.142;4.780;2023-08-08T01:28:35;14.70;99.90
15930;DHT22;8064;51.142;4.780;2023-08-08T01:31:01;14.70;99.90
15930;DHT22;8064;51.142;4.780;2023-08-08T01:33:27;14.70;99.90
15930;DHT22;8064;51.142;4.780;2023-08-08T01:35:56;14.60;99.90
15930;DHT22;8064;51.142;4.780;2023-08-08T01:38:28;14.70;99.90
15930;DHT22;8064;51.142;4.780;2023-08-08T01:40:57;14.60;99.90
15930;DHT22;8064;51.142;4.780;2023-08-08T01:43:24;14.60;99.90
15930;DHT22;8064;51.142;4.780;2023-08-08T01:45:50;14.60;99.90
15930;DHT22;8064;51.142;4.780;2023-08-08T01:48:17;14.60;99.90
15930;DHT22;8064;51.142;4.780;2023-08-08T01:50:43;14.60;99.90
15930;DHT22;8064;51.142;4.780;2023-08-08T01:53:09;14.60;99.90
15930;DHT22;8064;51.142;4.780;2023-08-08T01:55:35;14.60;99.90
15930;DHT22;8064;51.142;4.780;2023-08-08T01:58:00;14.60;99.90
15930;DHT22;8064;51.142;4.780;2023-08-08T02:00:26;14.60;99.90
15930;DHT22;8064;51.142;4.780;2023-08-08T02:02:52;14.50;99.90
15930;DHT22;8064;51.142;4.780;2023-08-08T02:05:18;14.50;99.90
15930;DHT22;8064;51.142;4.780;2023-08-08T02:07:44;14.60;99.90
15930;DHT22;8064;51.142;4.780;2023-08-08T02:10:09;14.50;99.90
15930;DHT22;8064;51.142;4.780;2023-08-08T02:12:35;14.50;99.90
15930;DHT22;8064;51.142;4.780;2023-08-08T02:15:01;14.50;99.90
15930;DHT22;8064;51.142;4.780;2023-08-08T02:17:27;14.50;99.90
15930;DHT22;8064;51.142;4.780;2023-08-08T02:19:53;14.50;99.90
15930;DHT22;8064;51.142;4.780;2023-08-08T02:22:18;14.50;99.90
15930;DHT22;8064;51.142;4.780;2023-08-08T02:24:44;14.50;99.90
15930;DHT22;8064;51.142;4.780;2023-08-08T02:27:11;14.50;99.90
15930;DHT22;8064;51.142;4.780;2023-08-08T02:29:37;14.50;99.90
15930;DHT22;8064;51.142;4.780;2023-08-08T02:32:03;14.50;99.90
15930;DHT22;8064;51.142;4.780;2023-08-08T02:34:29;14.40;99.90
15930;DHT22;8064;51.142;4.780;2023-08-08T02:36:55;14.40;99.90
15930;DHT22;8064;51.142;4.780;2023-08-08T02:39:21;14.40;99.90
15930;DHT22;8064;51.142;4.780;2023-08-08T02:41:46;14.40;99.90
15930;DHT22;8064;51.142;4.780;2023-08-08T02:44:12;14.40;99.90
15930;DHT22;8064;51.142;4.780;2023-08-08T02:46:38;14.40;99.90
15930;DHT22;8064;51.142;4.780;2023-08-08T02:49:04;14.40;99.90
15930;DHT22;8064;51.142;4.780;2023-08-08T02:51:30;14.40;99.90
15930;DHT22;8064;51.142;4.780;2023-08-08T02:53:56;14.30;99.90
15930;DHT22;8064;51.142;4.780;2023-08-08T02:56:22;14.30;99.90
15930;DHT22;8064;51.142;4.780;2023-08-08T02:58:47;14.40;99.90
15930;DHT22;8064;51.142;4.780;2023-08-08T03:01:14;14.40;99.90
15930;DHT22;8064;51.142;4.780;2023-08-08T03:03:41;14.40;99.90
15930;DHT22;8064;51.142;4.780;2023-08-08T03:06:07;14.30;99.90
15930;DHT22;8064;51.142;4.780;2023-08-08T03:08:33;14.30;99.90
15930;DHT22;8064;51.142;4.780;2023-08-08T03:10:59;14.30;99.90
15930;DHT22;8064;51.142;4.780;2023-08-08T03:13:25;14.30;99.90
15930;DHT22;8064;51.142;4.780;2023-08-08T03:15:51;14.30;99.90
15930;DHT22;8064;51.142;4.780;2023-08-08T03:18:17;14.30;99.90
15930;DHT22;8064;51.142;4.780;2023-08-08T03:20:42;14.30;99.90
15930;DHT22;8064;51.142;4.780;2023-08-08T03:23:08;14.30;99.90
15930;DHT22;8064;51.142;4.780;2023-08-08T03:25:34;14.30;99.90
15930;DHT22;8064;51.142;4.780;2023-08-08T03:28:00;14.30;99.90
15930;DHT22;8064;51.142;4.780;2023-08-08T03:30:26;14.30;99.90
15930;DHT22;8064;51.142;4.780;2023-08-08T03:32:51;14.20;99.90
15930;DHT22;8064;51.142;4.780;2023-08-08T03:35:17;14.20;99.90
15930;DHT22;8064;51.142;4.780;2023-08-08T03:37:43;14.20;99.90
15930;DHT22;8064;51.142;4.780;2023-08-08T03:40:09;14.20;99.90
15930;DHT22;8064;51.142;4.780;2023-08-08T03:42:35;14.20;99.90
15930;DHT22;8064;51.142;4.780;2023-08-08T03:45:01;14.10;99.90
15930;DHT22;8064;51.142;4.780;2023-08-08T03:47:27;14.20;99.90
15930;DHT22;8064;51.142;4.780;2023-08-08T03:49:55;14.20;99.90
15930;DHT22;8064;51.142;4.780;2023-08-08T03:52:23;14.10;99.90
15930;DHT22;8064;51.142;4.780;2023-08-08T03:54:49;14.10;99.90
15930;DHT22;8064;51.142;4.780;2023-08-08T03:57:14;14.10;99.90
15930;DHT22;8064;51.142;4.780;2023-08-08T03:59:40;14.10;99.90
15930;DHT22;8064;51.142;4.780;2023-08-08T04:02:06;14.10;99.90
15930;DHT22;8064;51.142;4.780;2023-08-08T04:04:32;14.10;99.90
15930;DHT22;8064;51.142;4.780;2023-08-08T04:06:57;14.10;99.90
15930;DHT22;8064;51.142;4.780;2023-08-08T04:09:23;14.10;99.90
15930;DHT22;8064;51.142;4.780;2023-08-08T04:11:49;14.10;99.90
15930;DHT22;8064;51.142;4.780;2023-08-08T04:14:15;14.10;99.90
15930;DHT22;8064;51.142;4.780;2023-08-08T04:16:40;14.10;99.90
15930;DHT22;8064;51.142;4.780;2023-08-08T04:19:06;14.10;99.90
15930;DHT22;8064;51.142;4.780;2023-08-08T04:21:32;14.10;99.90
15930;DHT22;8064;51.142;4.780;2023-08-08T04:23:59;14.00;99.90
15930;DHT22;8064;51.142;4.780;2023-08-08T04:26:26;14.00;99.90
15930;DHT22;8064;51.142;4.780;2023-08-08T04:28:52;14.10;99.90
15930;DHT22;8064;51.142;4.780;2023-08-08T04:31:17;14.00;99.90
15930;DHT22;8064;51.142;4.780;2023-08-08T04:33:43;14.10;99.90
15930;DHT22;8064;51.142;4.780;2023-08-08T04:36:09;14.10;99.90
15930;DHT22;8064;51.142;4.780;2023-08-08T04:38:35;14.00;99.90
15930;DHT22;8064;51.142;4.780;2023-08-08T04:41:00;14.00;99.90
15930;DHT22;8064;51.142;4.780;2023-08-08T04:43:26;14.00;99.90
15930;DHT22;8064;51.142;4.780;2023-08-08T04:45:53;14.10;99.90
15930;DHT22;8064;51.142;4.780;2023-08-08T04:48:19;14.10;99.90
15930;DHT22;8064;51.142;4.780;2023-08-08T04:50:47;14.10;99.90
15930;DHT22;8064;51.142;4.780;2023-08-08T04:53:13;14.10;99.90
15930;DHT22;8064;51.142;4.780;2023-08-08T04:55:38;14.20;99.90
15930;DHT22;8064;51.142;4.780;2023-08-08T04:58:05;14.10;99.90
15930;DHT22;8064;51.142;4.780;2023-08-08T05:00:30;14.20;99.90
15930;DHT22;8064;51.142;4.780;2023-08-08T05:02:56;14.20;99.90
15930;DHT22;8064;51.142;4.780;2023-08-08T05:05:22;14.20;99.90
15930;DHT22;8064;51.142;4.780;2023-08-08T05:07:48;14.30;99.90
15930;DHT22;8064;51.142;4.780;2023-08-08T05:10:13;14.30;99.90
15930;DHT22;8064;51.142;4.780;2023-08-08T05:12:39;14.30;99.90
15930;DHT22;8064;51.142;4.780;2023-08-08T05:15:05;14.40;99.90
15930;DHT22;8064;51.142;4.780;2023-08-08T05:17:31;14.40;99.90
15930;DHT22;8064;51.142;4.780;2023-08-08T05:19:58;14.50;99.90
15930;DHT22;8064;51.142;4.780;2023-08-08T05:22:24;14.50;99.90
15930;DHT22;8064;51.142;4.780;2023-08-08T05:24:50;14.50;99.90
15930;DHT22;8064;51.142;4.780;2023-08-08T05:27:15;14.50;99.90
15930;DHT22;8064;51.142;4.780;2023-08-08T05:29:41;14.50;99.90
15930;DHT22;8064;51.142;4.780;2023-08-08T05:32:08;14.50;99.90
15930;DHT22;8064;51.142;4.780;2023-08-08T05:34:34;14.60;99.90
15930;DHT22;8064;51.142;4.780;2023-08-08T05:37:00;14.60;99.90
15930;DHT22;8064;51.142;4.780;2023-08-08T05:39:26;14.60;99.90
15930;DHT22;8064;51.142;4.780;2023-08-08T05:41:52;14.60;99.90
15930;DHT22;8064;51.142;4.780;2023-08-08T05:44:18;14.60;99.90
15930;DHT22;8064;51.142;4.780;2023-08-08T05:46:44;14.70;99.90
15930;DHT22;8064;51.142;4.780;2023-08-08T05:49:10;14.70;99.90
15930;DHT22;8064;51.142;4.780;2023-08-08T05:51:36;14.70;99.90
15930;DHT22;8064;51.142;4.780;2023-08-08T05:54:01;14.70;99.90
15930;DHT22;8064;51.142;4.780;2023-08-08T05:56:36;14.80;99.90
15930;DHT22;8064;51.142;4.780;2023-08-08T05:59:02;14.80;99.90
15930;DHT22;8064;51.142;4.780;2023-08-08T06:01:28;14.80;99.90
15930;DHT22;8064;51.142;4.780;2023-08-08T06:03:53;14.80;99.90
15930;DHT22;8064;51.142;4.780;2023-08-08T06:06:19;14.90;99.90
15930;DHT22;8064;51.142;4.780;2023-08-08T06:08:45;14.90;99.90
15930;DHT22;8064;51.142;4.780;2023-08-08T06:11:11;15.00;99.90
15930;DHT22;8064;51.142;4.780;2023-08-08T06:13:37;15.00;99.90
15930;DHT22;8064;51.142;4.780;2023-08-08T06:16:03;15.10;99.90
15930;DHT22;8064;51.142;4.780;2023-08-08T06:18:33;15.10;99.90
15930;DHT22;8064;51.142;4.780;2023-08-08T06:20:59;15.20;99.90
15930;DHT22;8064;51.142;4.780;2023-08-08T06:23:25;15.30;99.90
15930;DHT22;8064;51.142;4.780;2023-08-08T06:25:50;15.30;99.90
15930;DHT22;8064;51.142;4.780;2023-08-08T06:28:16;15.40;99.90
15930;DHT22;8064;51.142;4.780;2023-08-08T06:30:42;15.40;99.90
15930;DHT22;8064;51.142;4.780;2023-08-08T06:33:08;15.50;99.90
15930;DHT22;8064;51.142;4.780;2023-08-08T06:35:34;15.50;99.90
15930;DHT22;8064;51.142;4.780;2023-08-08T06:37:59;15.60;99.90
15930;DHT22;8064;51.142;4.780;2023-08-08T06:40:25;15.60;99.90
15930;DHT22;8064;51.142;4.780;2023-08-08T06:42:51;15.70;99.90
15930;DHT22;8064;51.142;4.780;2023-08-08T06:45:17;15.80;99.90
15930;DHT22;8064;51.142;4.780;2023-08-08T06:47:43;15.80;99.90
15930;DHT22;8064;51.142;4.780;2023-08-08T06:50:09;15.90;99.90
15930;DHT22;8064;51.142;4.780;2023-08-08T06:52:37;16.00;99.90
15930;DHT22;8064;51.142;4.780;2023-08-08T06:55:03;16.10;99.90
15930;DHT22;8064;51.142;4.780;2023-08-08T06:57:32;16.20;99.90
15930;DHT22;8064;51.142;4.780;2023-08-08T06:59:58;16.30;99.90
15930;DHT22;8064;51.142;4.780;2023-08-08T07:02:24;16.50;99.90
15930;DHT22;8064;51.142;4.780;2023-08-08T07:04:50;16.60;99.90
15930;DHT22;8064;51.142;4.780;2023-08-08T07:07:16;16.70;99.90
15930;DHT22;8064;51.142;4.780;2023-08-08T07:09:42;16.90;99.90
15930;DHT22;8064;51.142;4.780;2023-08-08T07:12:08;17.00;99.90
15930;DHT22;8064;51.142;4.780;2023-08-08T07:14:34;17.20;99.90
15930;DHT22;8064;51.142;4.780;2023-08-08T07:17:00;17.30;99.90
15930;DHT22;8064;51.142;4.780;2023-08-08T07:19:28;17.40;99.90
15930;DHT22;8064;51.142;4.780;2023-08-08T07:21:54;17.40;99.90
15930;DHT22;8064;51.142;4.780;2023-08-08T07:24:19;17.40;99.90
15930;DHT22;8064;51.142;4.780;2023-08-08T07:26:46;17.40;99.90
15930;DHT22;8064;51.142;4.780;2023-08-08T07:29:12;17.50;99.90
15930;DHT22;8064;51.142;4.780;2023-08-08T07:31:37;17.50;99.90
15930;DHT22;8064;51.142;4.780;2023-08-08T07:34:03;17.60;99.90
15930;DHT22;8064;51.142;4.780;2023-08-08T07:36:29;17.60;99.90
15930;DHT22;8064;51.142;4.780;2023-08-08T07:38:55;17.60;99.90
15930;DHT22;8064;51.142;4.780;2023-08-08T07:41:26;17.70;99.90
15930;DHT22;8064;51.142;4.780;2023-08-08T07:43:52;17.70;99.90
15930;DHT22;8064;51.142;4.780;2023-08-08T07:46:18;17.70;99.90
15930;DHT22;8064;51.142;4.780;2023-08-08T07:48:44;17.60;99.90
15930;DHT22;8064;51.142;4.780;2023-08-08T07:51:09;17.60;99.90
15930;DHT22;8064;51.142;4.780;2023-08-08T07:53:35;17.60;99.90
15930;DHT22;8064;51.142;4.780;2023-08-08T07:56:01;17.60;99.90
15930;DHT22;8064;51.142;4.780;2023-08-08T07:58:26;17.50;99.90
15930;DHT22;8064;51.142;4.780;2023-08-08T08:00:53;17.50;99.90
15930;DHT22;8064;51.142;4.780;2023-08-08T08:03:20;17.50;99.90
15930;DHT22;8064;51.142;4.780;2023-08-08T08:05:46;17.40;99.90
15930;DHT22;8064;51.142;4.780;2023-08-08T08:08:12;17.40;99.90
15930;DHT22;8064;51.142;4.780;2023-08-08T08:10:38;17.40;99.90
15930;DHT22;8064;51.142;4.780;2023-08-08T08:13:04;17.40;99.90
15930;DHT22;8064;51.142;4.780;2023-08-08T08:15:30;17.30;99.90
15930;DHT22;8064;51.142;4.780;2023-08-08T08:17:56;17.30;99.90
15930;DHT22;8064;51.142;4.780;2023-08-08T08:20:22;17.30;99.90
15930;DHT22;8064;51.142;4.780;2023-08-08T08:22:47;17.30;99.90
15930;DHT22;8064;51.142;4.780;2023-08-08T08:25:14;17.30;99.90
15930;DHT22;8064;51.142;4.780;2023-08-08T08:27:40;17.50;99.90
15930;DHT22;8064;51.142;4.780;2023-08-08T08:30:07;17.50;99.90
15930;DHT22;8064;51.142;4.780;2023-08-08T08:32:37;17.70;99.90
15930;DHT22;8064;51.142;4.780;2023-08-08T08:35:03;17.80;99.90
15930;DHT22;8064;51.142;4.780;2023-08-08T08:37:29;17.90;99.90
15930;DHT22;8064;51.142;4.780;2023-08-08T08:39:55;18.00;99.90
15930;DHT22;8064;51.142;4.780;2023-08-08T08:42:22;18.10;99.90
15930;DHT22;8064;51.142;4.780;2023-08-08T08:44:49;18.30;99.90
15930;DHT22;8064;51.142;4.780;2023-08-08T08:47:17;18.30;99.90
15930;DHT22;8064;51.142;4.780;2023-08-08T08:49:45;18.30;99.90
15930;DHT22;8064;51.142;4.780;2023-08-08T08:52:11;18.20;99.90
15930;DHT22;8064;51.142;4.780;2023-08-08T08:54:37;18.20;99.90
15930;DHT22;8064;51.142;4.780;2023-08-08T08:57:04;18.10;99.90
15930;DHT22;8064;51.142;4.780;2023-08-08T08:59:31;18.10;99.90
15930;DHT22;8064;51.142;4.780;2023-08-08T09:01:57;18.00;99.90
15930;DHT22;8064;51.142;4.780;2023-08-08T09:04:24;18.00;99.90
15930;DHT22;8064;51.142;4.780;2023-08-08T09:06:51;18.00;99.90
15930;DHT22;8064;51.142;4.780;2023-08-08T09:09:18;17.90;99.90
15930;DHT22;8064;51.142;4.780;2023-08-08T09:11:50;17.90;99.90
15930;DHT22;8064;51.142;4.780;2023-08-08T09:14:19;17.80;99.90
15930;DHT22;8064;51.142;4.780;2023-08-08T09:16:46;17.80;99.90
15930;DHT22;8064;51.142;4.780;2023-08-08T09:19:13;17.80;99.90
15930;DHT22;8064;51.142;4.780;2023-08-08T09:21:38;17.80;99.90
15930;DHT22;8064;51.142;4.780;2023-08-08T09:24:04;17.90;99.90
15930;DHT22;8064;51.142;4.780;2023-08-08T09:26:31;17.90;99.90
15930;DHT22;8064;51.142;4.780;2023-08-08T09:28:57;17.90;99.90
15930;DHT22;8064;51.142;4.780;2023-08-08T09:31:25;18.00;99.90
15930;DHT22;8064;51.142;4.780;2023-08-08T09:33:53;18.10;99.90
15930;DHT22;8064;51.142;4.780;2023-08-08T09:36:19;18.20;99.90
15930;DHT22;8064;51.142;4.780;2023-08-08T09:38:45;18.40;99.90
15930;DHT22;8064;51.142;4.780;2023-08-08T09:41:11;18.40;99.90
15930;DHT22;8064;51.142;4.780;2023-08-08T09:43:37;18.50;99.90
15930;DHT22;8064;51.142;4.780;2023-08-08T09:46:03;18.50;99.90
15930;DHT22;8064;51.142;4.780;2023-08-08T09:48:32;18.50;99.90
15930;DHT22;8064;51.142;4.780;2023-08-08T09:50:59;18.50;99.90
15930;DHT22;8064;51.142;4.780;2023-08-08T09:53:26;18.50;99.90
15930;DHT22;8064;51.142;4.780;2023-08-08T09:55:54;18.50;99.90
15930;DHT22;8064;51.142;4.780;2023-08-08T09:58:21;18.70;99.90
15930;DHT22;8064;51.142;4.780;2023-08-08T10:00:49;18.90;99.90
15930;DHT22;8064;51.142;4.780;2023-08-08T10:03:16;19.00;99.90
15930;DHT22;8064;51.142;4.780;2023-08-08T10:05:43;19.10;99.90
15930;DHT22;8064;51.142;4.780;2023-08-08T10:08:09;19.30;99.90
15930;DHT22;8064;51.142;4.780;2023-08-08T10:10:36;19.40;99.90
15930;DHT22;8064;51.142;4.780;2023-08-08T10:13:03;19.50;99.90
15930;DHT22;8064;51.142;4.780;2023-08-08T10:15:29;19.60;99.90
15930;DHT22;8064;51.142;4.780;2023-08-08T10:17:56;19.80;99.90
15930;DHT22;8064;51.142;4.780;2023-08-08T10:20:24;19.90;99.90
15930;DHT22;8064;51.142;4.780;2023-08-08T10:22:52;20.00;99.90
15930;DHT22;8064;51.142;4.780;2023-08-08T10:25:31;20.20;99.90
15930;DHT22;8064;51.142;4.780;2023-08-08T10:28:09;20.30;99.90
15930;DHT22;8064;51.142;4.780;2023-08-08T10:30:55;20.50;99.90
15930;DHT22;8064;51.142;4.780;2023-08-08T10:33:24;20.70;99.90
15930;DHT22;8064;51.142;4.780;2023-08-08T10:35:56;20.80;99.90
15930;DHT22;8064;51.142;4.780;2023-08-08T10:38:23;21.00;99.90
15930;DHT22;8064;51.142;4.780;2023-08-08T10:40:57;20.90;99.90
15930;DHT22;8064;51.142;4.780;2023-08-08T10:43:36;20.90;99.90
15930;DHT22;8064;51.142;4.780;2023-08-08T10:46:03;20.90;99.90
15930;DHT22;8064;51.142;4.780;2023-08-08T10:48:29;21.10;99.90
15930;DHT22;8064;51.142;4.780;2023-08-08T10:51:05;21.30;99.90
15930;DHT22;8064;51.142;4.780;2023-08-08T10:53:31;21.60;99.90
15930;DHT22;8064;51.142;4.780;2023-08-08T10:55:59;21.80;99.90
15930;DHT22;8064;51.142;4.780;2023-08-08T10:58:36;22.00;99.90
15930;DHT22;8064;51.142;4.780;2023-08-08T11:01:02;22.20;99.90
15930;DHT22;8064;51.142;4.780;2023-08-08T11:03:31;22.50;99.90
15930;DHT22;8064;51.142;4.780;2023-08-08T11:05:57;22.60;99.90
15930;DHT22;8064;51.142;4.780;2023-08-08T11:08:23;22.60;99.90
15930;DHT22;8064;51.142;4.780;2023-08-08T11:10:52;22.40;99.90
15930;DHT22;8064;51.142;4.780;2023-08-08T11:13:18;22.20;99.90
15930;DHT22;8064;51.142;4.780;2023-08-08T11:15:45;22.00;99.90
15930;DHT22;8064;51.142;4.780;2023-08-08T11:18:10;21.90;99.90
15930;DHT22;8064;51.142;4.780;2023-08-08T11:20:37;22.00;99.90
15930;DHT22;8064;51.142;4.780;2023-08-08T11:23:03;22.00;99.90
15930;DHT22;8064;51.142;4.780;2023-08-08T11:25:31;22.10;99.90
15930;DHT22;8064;51.142;4.780;2023-08-08T11:27:58;22.00;99.90
15930;DHT22;8064;51.142;4.780;2023-08-08T11:30:27;21.90;99.90
15930;DHT22;8064;51.142;4.780;2023-08-08T11:32:53;21.70;99.90
15930;DHT22;8064;51.142;4.780;2023-08-08T11:35:42;21.40;99.90
15930;DHT22;8064;51.142;4.780;2023-08-08T11:38:09;21.30;99.90
15930;DHT22;8064;51.142;4.780;2023-08-08T11:40:35;21.10;99.90
15930;DHT22;8064;51.142;4.780;2023-08-08T11:43:01;21.20;99.90
15930;DHT22;8064;51.142;4.780;2023-08-08T11:45:27;21.20;99.90
15930;DHT22;8064;51.142;4.780;2023-08-08T11:47:54;21.20;99.90
15930;DHT22;8064;51.142;4.780;2023-08-08T11:50:22;21.20;99.90
15930;DHT22;8064;51.142;4.780;2023-08-08T11:52:51;21.20;99.90
15930;DHT22;8064;51.142;4.780;2023-08-08T11:55:18;21.20;99.90
15930;DHT22;8064;51.142;4.780;2023-08-08T11:57:48;21.30;99.90
15930;DHT22;8064;51.142;4.780;2023-08-08T12:00:14;21.30;99.90
15930;DHT22;8064;51.142;4.780;2023-08-08T12:02:42;21.30;99.90
15930;DHT22;8064;51.142;4.780;2023-08-08T12:05:10;21.40;99.90
15930;DHT22;8064;51.142;4.780;2023-08-08T12:07:36;21.40;99.90
15930;DHT22;8064;51.142;4.780;2023-08-08T12:10:04;21.40;99.90
15930;DHT22;8064;51.142;4.780;2023-08-08T12:12:33;21.40;99.90
15930;DHT22;8064;51.142;4.780;2023-08-08T12:15:20;21.40;99.90
15930;DHT22;8064;51.142;4.780;2023-08-08T12:17:46;21.30;99.90
15930;DHT22;8064;51.142;4.780;2023-08-08T12:20:14;21.30;99.90
15930;DHT22;8064;51.142;4.780;2023-08-08T12:22:40;21.30;99.90
15930;DHT22;8064;51.142;4.780;2023-08-08T12:25:06;21.30;99.90
15930;DHT22;8064;51.142;4.780;2023-08-08T12:27:34;21.30;99.90
15930;DHT22;8064;51.142;4.780;2023-08-08T12:29:59;21.20;99.90
15930;DHT22;8064;51.142;4.780;2023-08-08T12:32:29;21.00;99.90
15930;DHT22;8064;51.142;4.780;2023-08-08T12:34:58;21.00;99.90
15930;DHT22;8064;51.142;4.780;2023-08-08T12:37:24;21.00;99.90
15930;DHT22;8064;51.142;4.780;2023-08-08T12:39:50;21.10;99.90
15930;DHT22;8064;51.142;4.780;2023-08-08T12:42:16;21.20;99.90
15930;DHT22;8064;51.142;4.780;2023-08-08T12:44:42;21.20;99.90
15930;DHT22;8064;51.142;4.780;2023-08-08T12:47:08;21.20;99.90
15930;DHT22;8064;51.142;4.780;2023-08-08T12:49:34;21.30;99.90
15930;DHT22;8064;51.142;4.780;2023-08-08T12:52:00;21.30;99.90
15930;DHT22;8064;51.142;4.780;2023-08-08T12:54:25;21.30;99.90
15930;DHT22;8064;51.142;4.780;2023-08-08T12:56:51;21.30;99.90
15930;DHT22;8064;51.142;4.780;2023-08-08T12:59:17;21.30;99.90
15930;DHT22;8064;51.142;4.780;2023-08-08T13:01:43;21.30;99.90
15930;DHT22;8064;51.142;4.780;2023-08-08T13:04:08;21.30;99.90
15930;DHT22;8064;51.142;4.780;2023-08-08T13:06:34;21.30;99.40
15930;DHT22;8064;51.142;4.780;2023-08-08T13:09:00;21.30;99.30
15930;DHT22;8064;51.142;4.780;2023-08-08T13:11:27;21.30;99.00
15930;DHT22;8064;51.142;4.780;2023-08-08T13:13:53;21.40;99.10
15930;DHT22;8064;51.142;4.780;2023-08-08T13:16:19;21.40;99.00
15930;DHT22;8064;51.142;4.780;2023-08-08T13:18:44;21.40;99.20
15930;DHT22;8064;51.142;4.780;2023-08-08T13:21:10;21.40;99.40
15930;DHT22;8064;51.142;4.780;2023-08-08T13:23:36;21.40;99.50
15930;DHT22;8064;51.142;4.780;2023-08-08T13:26:02;21.30;99.50
15930;DHT22;8064;51.142;4.780;2023-08-08T13:28:29;21.30;99.60
15930;DHT22;8064;51.142;4.780;2023-08-08T13:30:55;21.30;99.40
15930;DHT22;8064;51.142;4.780;2023-08-08T13:33:21;21.30;99.30
15930;DHT22;8064;51.142;4.780;2023-08-08T13:35:47;21.40;98.60
15930;DHT22;8064;51.142;4.780;2023-08-08T13:38:13;21.40;98.70
15930;DHT22;8064;51.142;4.780;2023-08-08T13:40:41;21.30;99.10
15930;DHT22;8064;51.142;4.780;2023-08-08T13:43:07;21.30;99.20
15930;DHT22;8064;51.142;4.780;2023-08-08T13:45:34;21.30;99.30
15930;DHT22;8064;51.142;4.780;2023-08-08T13:48:00;21.30;99.10
15930;DHT22;8064;51.142;4.780;2023-08-08T13:50:25;21.30;99.40
15930;DHT22;8064;51.142;4.780;2023-08-08T13:52:51;21.30;99.80
15930;DHT22;8064;51.142;4.780;2023-08-08T13:55:18;21.40;99.50
15930;DHT22;8064;51.142;4.780;2023-08-08T13:57:44;21.40;99.10
15930;DHT22;8064;51.142;4.780;2023-08-08T14:00:11;21.30;98.70
15930;DHT22;8064;51.142;4.780;2023-08-08T14:02:38;21.30;98.50
15930;DHT22;8064;51.142;4.780;2023-08-08T14:05:05;21.30;98.20
15930;DHT22;8064;51.142;4.780;2023-08-08T14:07:33;21.30;98.20
15930;DHT22;8064;51.142;4.780;2023-08-08T14:09:59;21.30;98.30
15930;DHT22;8064;51.142;4.780;2023-08-08T14:12:25;21.30;98.60
15930;DHT22;8064;51.142;4.780;2023-08-08T14:14:50;21.30;98.80
15930;DHT22;8064;51.142;4.780;2023-08-08T14:17:16;21.30;98.80
15930;DHT22;8064;51.142;4.780;2023-08-08T14:19:42;21.30;98.70
15930;DHT22;8064;51.142;4.780;2023-08-08T14:22:08;21.20;98.70
15930;DHT22;8064;51.142;4.780;2023-08-08T14:24:33;21.20;98.40
15930;DHT22;8064;51.142;4.780;2023-08-08T14:27:00;21.10;97.90
15930;DHT22;8064;51.142;4.780;2023-08-08T14:29:26;21.10;98.30
15930;DHT22;8064;51.142;4.780;2023-08-08T14:31:52;21.10;98.60
15930;DHT22;8064;51.142;4.780;2023-08-08T14:34:17;21.10;98.60
15930;DHT22;8064;51.142;4.780;2023-08-08T14:36:43;21.10;98.40
15930;DHT22;8064;51.142;4.780;2023-08-08T14:39:09;21.10;98.30
15930;DHT22;8064;51.142;4.780;2023-08-08T14:41:35;21.10;98.10
15930;DHT22;8064;51.142;4.780;2023-08-08T14:44:01;21.10;97.90
15930;DHT22;8064;51.142;4.780;2023-08-08T14:46:27;21.10;97.70
15930;DHT22;8064;51.142;4.780;2023-08-08T14:48:53;21.10;97.70
15930;DHT22;8064;51.142;4.780;2023-08-08T14:51:20;21.10;97.90
15930;DHT22;8064;51.142;4.780;2023-08-08T14:53:46;21.10;97.80
15930;DHT22;8064;51.142;4.780;2023-08-08T14:56:11;21.10;97.60
15930;DHT22;8064;51.142;4.780;2023-08-08T14:58:37;21.10;97.60
15930;DHT22;8064;51.142;4.780;2023-08-08T15:01:03;21.10;97.70
15930;DHT22;8064;51.142;4.780;2023-08-08T15:03:29;21.10;97.80
15930;DHT22;8064;51.142;4.780;2023-08-08T15:05:55;21.10;97.90
15930;DHT22;8064;51.142;4.780;2023-08-08T15:08:20;21.00;98.00
15930;DHT22;8064;51.142;4.780;2023-08-08T15:10:47;21.00;98.40
15930;DHT22;8064;51.142;4.780;2023-08-08T15:13:12;20.90;98.50
15930;DHT22;8064;51.142;4.780;2023-08-08T15:15:38;20.80;98.60
15930;DHT22;8064;51.142;4.780;2023-08-08T15:18:04;20.80;98.60
15930;DHT22;8064;51.142;4.780;2023-08-08T15:20:30;20.70;98.80
15930;DHT22;8064;51.142;4.780;2023-08-08T15:22:56;20.60;98.80
15930;DHT22;8064;51.142;4.780;2023-08-08T15:25:22;20.60;99.50
15930;DHT22;8064;51.142;4.780;2023-08-08T15:27:47;20.50;99.20
15930;DHT22;8064;51.142;4.780;2023-08-08T15:30:13;20.50;99.10
15930;DHT22;8064;51.142;4.780;2023-08-08T15:32:39;20.40;98.90
15930;DHT22;8064;51.142;4.780;2023-08-08T15:35:05;20.40;98.90
15930;DHT22;8064;51.142;4.780;2023-08-08T15:37:31;20.30;98.90
15930;DHT22;8064;51.142;4.780;2023-08-08T15:39:57;20.20;99.10
15930;DHT22;8064;51.142;4.780;2023-08-08T15:42:24;20.20;99.80